Time;durP1;ratioP1;P1;durP2;ratioP2;P2;SDS_P1;SDS_P2;PMS_P1;PMS_P2;Temp;Humidity;BMP_temperature;BMP_pressure;BME280_temperature;BME280_humidity;BME280_pressure;Samples;Min_cycle;Max_cycle;Signal;HPM_P1;HPM_P2
2023/06/25 00:01:18;;;;;;;5.20;4.80;;;;;;;25.78;63.71;101275.06;107079;1264;25470;-49
2023/06/25 00:03:45;;;;;;;4.80;4.20;;;;;;;25.77;63.85;101276.17;106794;1256;23862;-54
2023/06/25 00:06:13;;;;;;;6.40;5.00;;;;;;;25.77;63.88;101271.89;107091;1263;24358;-49
2023/06/25 00:08:40;;;;;;;6.50;5.40;;;;;;;25.78;63.78;101264.00;106766;1271;22524;-49
2023/06/25 00:11:07;;;;;;;8.20;5.20;;;;;;;25.80;63.68;101263.20;107093;1257;25465;-54
2023/06/25 00:13:34;;;;;;;5.10;4.60;;;;;;;25.80;63.47;101268.70;107020;1258;25321;-49
2023/06/25 00:16:01;;;;;;;6.10;4.50;;;;;;;25.82;63.48;101273.08;107138;1257;25399;-49
2023/06/25 00:18:28;;;;;;;5.90;4.90;;;;;;;25.84;63.25;101277.93;107158;1267;25340;-51
2023/06/25 00:20:55;;;;;;;5.00;4.40;;;;;;;25.84;63.24;101269.02;107118;1268;23900;-50
2023/06/25 00:23:24;;;;;;;6.00;4.90;;;;;;;25.86;63.21;101268.59;107106;1253;25350;-48
2023/06/25 00:25:51;;;;;;;5.30;4.80;;;;;;;25.86;63.25;101265.89;107145;1258;25399;-48
2023/06/25 00:28:18;;;;;;;5.40;4.90;;;;;;;25.88;63.41;101264.73;106983;1258;25332;-48
2023/06/25 00:30:45;;;;;;;6.80;5.20;;;;;;;25.89;63.41;101262.48;107125;1263;25478;-49
2023/06/25 00:33:12;;;;;;;7.30;4.70;;;;;;;25.90;63.64;101254.94;107091;1257;25356;-51
2023/06/25 00:35:49;;;;;;;5.40;4.90;;;;;;;25.90;63.59;101251.58;106931;1260;25409;-48
2023/06/25 00:38:17;;;;;;;7.60;5.40;;;;;;;25.90;63.84;101254.63;107225;1267;25447;-49
2023/06/25 00:40:44;;;;;;;5.90;4.90;;;;;;;25.90;63.86;101263.66;106918;1267;25429;-48
2023/06/25 00:43:15;;;;;;;7.40;5.20;;;;;;;25.89;64.00;101267.61;106758;1263;25332;-48
2023/06/25 00:45:42;;;;;;;8.20;5.40;;;;;;;25.91;64.13;101271.42;106919;1266;25322;-49
2023/06/25 00:48:09;;;;;;;5.20;4.60;;;;;;;25.91;64.27;101268.39;106866;1264;24339;-49
2023/06/25 00:50:36;;;;;;;8.40;5.60;;;;;;;25.91;64.49;101263.77;106798;1255;25360;-47
2023/06/25 00:53:08;;;;;;;7.60;5.00;;;;;;;25.91;64.52;101262.65;107020;1254;25482;-49
2023/06/25 00:55:36;;;;;;;5.20;4.70;;;;;;;25.94;64.50;101261.58;107086;1267;25370;-50
2023/06/25 00:58:04;;;;;;;6.00;4.40;;;;;;;25.95;64.59;101258.64;107079;1263;22654;-50
2023/06/25 01:00:33;;;;;;;5.80;4.80;;;;;;;25.96;64.36;101255.21;107095;1264;25398;-49
2023/06/25 01:03:07;;;;;;;4.70;4.30;;;;;;;25.96;64.37;101256.27;106870;1266;25322;-49
2023/06/25 01:05:39;;;;;;;5.60;4.50;;;;;;;25.96;64.20;101256.09;107106;1257;22521;-50
2023/06/25 01:08:10;;;;;;;7.80;5.00;;;;;;;25.96;64.10;101256.09;107074;1257;25339;-49
2023/06/25 01:10:39;;;;;;;5.20;4.70;;;;;;;25.96;64.02;101250.72;106797;1270;25322;-49
2023/06/25 01:13:06;;;;;;;5.20;4.70;;;;;;;25.96;64.07;101256.45;106848;1267;24395;-49
2023/06/25 01:15:35;;;;;;;5.60;4.90;;;;;;;25.96;63.95;101263.38;107167;1255;24447;-50
2023/06/25 01:18:04;;;;;;;7.20;4.60;;;;;;;25.95;64.01;101262.33;107115;1260;25413;-49
2023/06/25 01:20:31;;;;;;;5.90;4.70;;;;;;;25.95;63.94;101262.33;107037;1264;25322;-49
2023/06/25 01:22:58;;;;;;;5.30;4.80;;;;;;;25.95;63.90;101267.71;106873;1267;23389;-50
2023/06/25 01:25:26;;;;;;;5.60;4.80;;;;;;;25.95;64.13;101263.80;107019;1261;25350;-49
2023/06/25 01:27:54;;;;;;;5.10;4.60;;;;;;;25.94;64.06;101255.17;106822;1261;25415;-49
2023/06/25 01:30:25;;;;;;;7.40;4.90;;;;;;;25.95;64.13;101257.77;106733;1264;25793;-49
2023/06/25 01:32:52;;;;;;;5.00;4.60;;;;;;;25.94;64.19;101253.56;106834;1260;25410;-50
2023/06/25 01:35:20;;;;;;;5.00;4.50;;;;;;;25.93;64.23;101246.14;106685;1256;23317;-49
2023/06/25 01:37:47;;;;;;;6.10;5.40;;;;;;;25.93;64.22;101248.46;106725;1257;25738;-48
2023/06/25 01:40:14;;;;;;;5.70;5.10;;;;;;;25.92;64.34;101245.54;106700;1263;22591;-50
2023/06/25 01:42:42;;;;;;;6.80;4.90;;;;;;;25.91;64.45;101245.77;106739;1265;24363;-50
2023/06/25 01:45:11;;;;;;;5.70;5.20;;;;;;;25.91;64.50;101244.23;106803;1261;25338;-50
2023/06/25 01:47:39;;;;;;;4.90;4.40;;;;;;;25.90;64.42;101241.80;106666;1270;25341;-51
2023/06/25 01:50:06;;;;;;;5.70;5.20;;;;;;;25.89;64.41;101244.14;106775;1267;22542;-49
2023/06/25 01:52:34;;;;;;;6.50;5.00;;;;;;;25.88;64.39;101244.92;106763;1257;25315;-49
2023/06/25 01:55:01;;;;;;;5.40;4.70;;;;;;;25.87;64.61;101241.82;106798;1260;25406;-50
2023/06/25 01:57:29;;;;;;;5.60;5.10;;;;;;;25.86;64.61;101243.68;106778;1264;25441;-52
2023/06/25 01:59:56;;;;;;;5.70;5.10;;;;;;;25.85;64.77;101249.80;106962;1257;24345;-50
2023/06/25 02:02:23;;;;;;;7.80;5.20;;;;;;;25.84;64.66;101253.09;106903;1260;25361;-50
2023/06/25 02:04:50;;;;;;;6.90;5.80;;;;;;;25.83;64.85;101250.15;106743;1273;25386;-50
2023/06/25 02:07:17;;;;;;;7.10;5.50;;;;;;;25.81;64.75;101247.61;107147;1257;25350;-50
2023/06/25 02:09:44;;;;;;;8.00;4.80;;;;;;;25.80;64.76;101246.09;107050;1264;25409;-50
2023/06/25 02:12:11;;;;;;;8.90;5.50;;;;;;;25.79;64.90;101242.05;107097;1253;25341;-50
2023/06/25 02:14:38;;;;;;;5.60;4.90;;;;;;;25.79;64.98;101242.10;107031;1267;24319;-54
2023/06/25 02:17:05;;;;;;;10.00;5.00;;;;;;;25.77;64.92;101245.02;107021;1266;22527;-49
2023/06/25 02:19:33;;;;;;;5.50;5.00;;;;;;;25.77;65.14;101251.33;107115;1264;22638;-50
2023/06/25 02:22:00;;;;;;;6.40;5.00;;;;;;;25.76;65.08;101246.07;106852;1257;25321;-50
2023/06/25 02:24:27;;;;;;;8.20;5.00;;;;;;;25.75;65.11;101242.60;106766;1273;25312;-49
2023/06/25 02:26:55;;;;;;;5.50;5.00;;;;;;;25.73;65.07;101236.66;106773;1273;24207;-51
2023/06/25 02:29:22;;;;;;;6.00;5.30;;;;;;;25.70;65.08;101238.69;106964;1257;25380;-50
2023/06/25 02:31:49;;;;;;;7.00;5.00;;;;;;;25.71;65.07;101238.30;107122;1264;25406;-50
2023/06/25 02:34:16;;;;;;;5.70;5.10;;;;;;;25.70;65.20;101237.95;107116;1261;25312;-50
2023/06/25 02:36:43;;;;;;;5.60;4.90;;;;;;;25.70;65.12;101239.90;107067;1257;24033;-50
2023/06/25 02:39:10;;;;;;;6.00;4.60;;;;;;;25.71;65.06;101245.23;107010;1264;25319;-50
2023/06/25 02:41:39;;;;;;;5.70;5.20;;;;;;;25.70;64.99;101239.38;106905;1257;25442;-53
2023/06/25 02:44:07;;;;;;;6.80;5.60;;;;;;;25.71;64.89;101238.09;106906;1257;25337;-50
2023/06/25 02:46:36;;;;;;;5.60;5.00;;;;;;;25.71;64.94;101234.37;107073;1253;24242;-50
2023/06/25 02:49:04;;;;;;;6.10;5.40;;;;;;;25.71;64.90;101237.58;106978;1260;25551;-50
2023/06/25 02:51:31;;;;;;;6.30;5.70;;;;;;;25.71;64.75;101238.47;106597;1267;25352;-50
2023/06/25 02:53:58;;;;;;;5.20;4.80;;;;;;;25.69;64.53;101237.86;106722;1256;23255;-50
2023/06/25 02:56:25;;;;;;;6.00;4.90;;;;;;;25.71;64.46;101233.98;106758;1257;25322;-49
2023/06/25 02:58:52;;;;;;;5.50;5.00;;;;;;;25.71;64.38;101234.55;107070;1256;22527;-50
2023/06/25 03:01:19;;;;;;;5.80;5.30;;;;;;;25.71;64.39;101238.96;106460;1264;25366;-49
2023/06/25 03:03:47;;;;;;;5.90;5.30;;;;;;;25.69;64.44;101233.80;106840;1255;24339;-49
2023/06/25 03:06:14;;;;;;;5.60;5.10;;;;;;;25.68;64.38;101237.04;106813;1257;24207;-49
2023/06/25 03:08:43;;;;;;;6.90;5.10;;;;;;;25.69;64.40;101231.68;106820;1266;24355;-49
2023/06/25 03:11:11;;;;;;;5.70;4.90;;;;;;;25.70;64.35;101231.45;107064;1256;25349;-49
2023/06/25 03:13:38;;;;;;;6.00;5.40;;;;;;;25.70;64.48;101230.66;106804;1273;25516;-49
2023/06/25 03:16:05;;;;;;;7.60;5.10;;;;;;;25.72;64.24;101234.31;107027;1257;25370;-49
2023/06/25 03:18:33;;;;;;;6.80;5.30;;;;;;;25.73;64.16;101233.82;107028;1253;25370;-49
2023/06/25 03:21:00;;;;;;;6.00;5.40;;;;;;;25.75;64.13;101232.48;107088;1257;24213;-49
2023/06/25 03:23:27;;;;;;;6.80;4.90;;;;;;;25.77;64.06;101228.34;107036;1256;25350;-49
2023/06/25 03:25:54;;;;;;;5.40;4.70;;;;;;;25.77;63.90;101231.92;106971;1261;22538;-49
2023/06/25 03:28:26;;;;;;;5.90;5.40;;;;;;;25.78;63.84;101232.23;106851;1274;25360;-49
2023/06/25 03:30:53;;;;;;;9.00;5.20;;;;;;;25.80;63.61;101226.88;107101;1256;25318;-49
2023/06/25 03:33:21;;;;;;;5.70;5.10;;;;;;;25.82;63.47;101225.65;106900;1261;24208;-49
2023/06/25 03:35:48;;;;;;;7.20;5.00;;;;;;;25.87;63.22;101231.17;107147;1252;25478;-49
2023/06/25 03:38:15;;;;;;;5.40;4.90;;;;;;;25.90;63.07;101222.98;106924;1256;25394;-53
2023/06/25 03:40:43;;;;;;;6.30;5.30;;;;;;;25.92;63.18;101223.88;107081;1264;24384;-50
2023/06/25 03:43:10;;;;;;;6.00;5.40;;;;;;;25.97;63.41;101227.40;106839;1264;25347;-51
2023/06/25 03:45:38;;;;;;;6.20;5.30;;;;;;;26.11;63.66;101225.02;106745;1264;25583;-50
2023/06/25 03:48:06;;;;;;;7.20;5.10;;;;;;;26.36;63.14;101225.88;106896;1264;25322;-49
2023/06/25 03:50:33;;;;;;;6.50;5.00;;;;;;;26.64;62.37;101225.31;106980;1257;24207;-50
2023/06/25 03:53:00;;;;;;;6.50;5.20;;;;;;;26.95;61.75;101231.14;107187;1257;25351;-51
2023/06/25 03:55:29;;;;;;;5.80;4.90;;;;;;;27.27;60.93;101223.48;107104;1267;23888;-51
2023/06/25 03:57:56;;;;;;;6.60;5.50;;;;;;;27.56;60.07;101221.73;106899;1265;24273;-50
2023/06/25 04:00:24;;;;;;;7.10;5.10;;;;;;;27.74;59.47;101218.42;106838;1259;25427;-51
2023/06/25 04:02:51;;;;;;;7.80;5.00;;;;;;;27.82;59.18;101214.54;107101;1257;22533;-51
2023/06/25 04:05:18;;;;;;;5.80;5.00;;;;;;;27.87;59.18;101213.16;106881;1251;24089;-49
2023/06/25 04:07:47;;;;;;;6.30;5.00;;;;;;;27.89;58.59;101212.78;106916;1260;25381;-50
2023/06/25 04:10:15;;;;;;;8.10;4.70;;;;;;;27.89;58.11;101212.42;106890;1270;25470;-55
2023/06/25 04:12:44;;;;;;;7.90;4.60;;;;;;;27.89;57.89;101207.41;106867;1260;25350;-50
2023/06/25 04:15:11;;;;;;;10.20;5.40;;;;;;;27.98;57.40;101210.77;107172;1263;25323;-50
2023/06/25 04:17:39;;;;;;;6.40;5.20;;;;;;;28.12;57.13;101208.23;106850;1257;25354;-50
2023/06/25 04:20:08;;;;;;;10.40;6.20;;;;;;;28.25;56.93;101206.61;107035;1270;22526;-50
2023/06/25 04:22:36;;;;;;;9.40;5.90;;;;;;;28.23;56.89;101206.23;106810;1260;25350;-50
2023/06/25 04:25:04;;;;;;;11.60;6.10;;;;;;;28.12;57.18;101204.73;106645;1268;25363;-49
2023/06/25 04:27:31;;;;;;;7.80;6.60;;;;;;;27.98;57.16;101206.63;106762;1258;25336;-50
2023/06/25 04:29:58;;;;;;;8.30;6.20;;;;;;;27.86;57.77;101204.46;107075;1265;23315;-50
2023/06/25 04:32:26;;;;;;;9.80;6.90;;;;;;;27.78;58.35;101205.73;106809;1257;24206;-51
2023/06/25 04:34:53;;;;;;;9.40;7.40;;;;;;;27.71;58.60;101204.55;107084;1263;25463;-50
2023/06/25 04:37:21;;;;;;;13.00;7.80;;;;;;;27.64;58.80;101200.17;107102;1263;25357;-50
2023/06/25 04:39:48;;;;;;;8.70;7.10;;;;;;;27.59;59.04;101200.10;106908;1256;25352;-50
2023/06/25 04:42:15;;;;;;;11.20;7.50;;;;;;;27.52;59.16;101201.92;107152;1257;23910;-50
2023/06/25 04:44:42;;;;;;;8.60;7.70;;;;;;;27.47;59.37;101198.88;107136;1260;25329;-50
2023/06/25 04:47:09;;;;;;;11.10;8.00;;;;;;;27.44;59.38;101204.29;106866;1267;25409;-49
2023/06/25 04:49:37;;;;;;;8.80;7.10;;;;;;;27.43;59.36;101204.52;107152;1263;25325;-49
2023/06/25 04:52:05;;;;;;;8.30;7.20;;;;;;;27.43;59.27;101208.10;106853;1258;22664;-50
2023/06/25 04:54:32;;;;;;;12.50;8.40;;;;;;;27.43;59.00;101208.08;107126;1264;25370;-50
2023/06/25 04:56:59;;;;;;;10.70;7.90;;;;;;;27.45;58.80;101206.86;107067;1262;25513;-50
2023/06/25 04:59:27;;;;;;;11.40;8.10;;;;;;;27.48;58.59;101209.27;106754;1260;24009;-50
2023/06/25 05:01:54;;;;;;;14.10;8.40;;;;;;;27.52;58.16;101213.18;107125;1252;25466;-50
2023/06/25 05:04:21;;;;;;;10.00;8.30;;;;;;;27.58;57.99;101215.19;107091;1264;24290;-50
2023/06/25 05:06:49;;;;;;;10.90;8.20;;;;;;;27.67;57.86;101214.94;107132;1253;25347;-50
2023/06/25 05:09:16;;;;;;;12.70;10.00;;;;;;;27.81;57.80;101217.42;107142;1256;25418;-50
2023/06/25 05:11:43;;;;;;;15.30;10.90;;;;;;;27.98;57.65;101212.17;106959;1256;25353;-49
2023/06/25 05:14:10;;;;;;;14.20;10.50;;;;;;;28.18;57.14;101215.04;106808;1267;24214;-49
2023/06/25 05:16:37;;;;;;;15.00;9.30;;;;;;;28.38;56.42;101214.54;107163;1253;25359;-49
2023/06/25 05:19:04;;;;;;;13.70;9.60;;;;;;;28.59;55.74;101211.33;107099;1260;25482;-49
2023/06/25 05:21:31;;;;;;;11.50;9.00;;;;;;;28.87;54.98;101205.75;106844;1260;25389;-49
2023/06/25 05:23:59;;;;;;;10.40;8.90;;;;;;;29.20;53.99;101204.17;107123;1267;25354;-48
2023/06/25 05:26:27;;;;;;;13.80;10.00;;;;;;;29.57;53.27;101206.98;107165;1252;25332;-49
2023/06/25 05:28:54;;;;;;;12.20;10.00;;;;;;;29.94;52.20;101210.02;107040;1252;25380;-49
2023/06/25 05:31:21;;;;;;;11.90;9.20;;;;;;;30.28;50.95;101207.91;107025;1262;25321;-49
2023/06/25 05:33:49;;;;;;;13.10;9.90;;;;;;;30.54;49.91;101213.65;107083;1253;24258;-49
2023/06/25 05:36:16;;;;;;;13.60;9.70;;;;;;;30.71;49.51;101209.44;107132;1258;25370;-50
2023/06/25 05:38:43;;;;;;;13.90;9.80;;;;;;;30.81;49.17;101208.84;106846;1267;25367;-49
2023/06/25 05:41:10;;;;;;;13.90;10.20;;;;;;;30.86;48.99;101212.95;107140;1257;25326;-49
2023/06/25 05:43:38;;;;;;;12.60;10.70;;;;;;;30.91;49.20;101217.88;106858;1270;25399;-52
2023/06/25 05:46:05;;;;;;;21.90;10.90;;;;;;;30.93;49.27;101215.72;107079;1256;25322;-49
2023/06/25 05:48:33;;;;;;;15.60;11.30;;;;;;;30.91;49.43;101218.35;106695;1267;25474;-50
2023/06/25 05:51:00;;;;;;;12.80;11.00;;;;;;;30.94;49.42;101221.90;106998;1260;24181;-49
2023/06/25 05:53:37;;;;;;;12.10;10.80;;;;;;;30.99;49.56;101216.17;107039;1256;25360;-49
2023/06/25 05:56:05;;;;;;;14.50;10.00;;;;;;;31.07;49.56;101219.58;106878;1258;25359;-48
2023/06/25 05:58:33;;;;;;;11.80;9.90;;;;;;;31.22;49.01;101220.94;107115;1254;24384;-49
2023/06/25 06:01:01;;;;;;;11.70;9.60;;;;;;;31.40;48.78;101218.27;107123;1263;24378;-49
2023/06/25 06:03:28;;;;;;;11.80;10.00;;;;;;;31.58;48.69;101217.81;107071;1260;25512;-50
2023/06/25 06:05:56;;;;;;;14.40;10.40;;;;;;;31.73;48.37;101221.65;107153;1253;25332;-49
2023/06/25 06:08:24;;;;;;;14.00;9.40;;;;;;;31.84;48.07;101225.83;107076;1255;25472;-51
2023/06/25 06:10:51;;;;;;;14.50;10.70;;;;;;;31.87;47.58;101227.16;107127;1262;25380;-49
2023/06/25 06:13:18;;;;;;;12.90;10.30;;;;;;;31.82;47.88;101233.45;107129;1253;25447;-49
2023/06/25 06:15:45;;;;;;;11.30;10.00;;;;;;;31.73;48.01;101236.30;107061;1264;25329;-49
2023/06/25 06:18:12;;;;;;;15.50;10.60;;;;;;;31.69;48.04;101237.23;107262;1260;25515;-48
2023/06/25 06:20:39;;;;;;;11.80;9.20;;;;;;;31.67;48.09;101236.08;107074;1260;25408;-49
2023/06/25 06:23:06;;;;;;;12.00;9.90;;;;;;;31.71;47.97;101239.98;107070;1253;22538;-49
2023/06/25 06:25:34;;;;;;;10.90;9.30;;;;;;;31.80;47.85;101239.68;106992;1252;25415;-49
2023/06/25 06:28:02;;;;;;;10.30;9.20;;;;;;;31.87;47.59;101245.40;107151;1265;25360;-49
2023/06/25 06:30:29;;;;;;;12.30;8.70;;;;;;;31.93;47.48;101246.64;106994;1261;25332;-51
2023/06/25 06:32:56;;;;;;;9.50;7.50;;;;;;;32.02;47.33;101247.61;107065;1257;24204;-48
2023/06/25 06:35:23;;;;;;;12.00;7.80;;;;;;;32.10;46.78;101247.75;107100;1256;24202;-49
2023/06/25 06:37:50;;;;;;;11.00;8.80;;;;;;;32.06;46.86;101240.57;107046;1256;25348;-54
2023/06/25 06:40:17;;;;;;;8.80;7.90;;;;;;;31.99;47.20;101240.02;107150;1251;25347;-49
2023/06/25 06:42:44;;;;;;;8.10;7.10;;;;;;;31.90;47.08;101239.33;107038;1257;25332;-49
2023/06/25 06:45:11;;;;;;;8.60;7.70;;;;;;;31.75;46.69;101239.70;107091;1255;25321;-48
2023/06/25 06:47:39;;;;;;;10.10;7.40;;;;;;;31.59;47.37;101241.54;107239;1260;25472;-49
2023/06/25 06:50:07;;;;;;;9.70;8.00;;;;;;;31.46;47.81;101245.27;106506;1274;24191;-49
2023/06/25 06:52:34;;;;;;;12.10;8.00;;;;;;;31.33;47.93;101243.84;106817;1264;25416;-50
2023/06/25 06:55:01;;;;;;;10.80;8.20;;;;;;;31.20;48.00;101242.13;106632;1262;24227;-49
2023/06/25 06:57:28;;;;;;;9.50;7.80;;;;;;;31.07;48.35;101244.51;106823;1265;24472;-49
2023/06/25 06:59:55;;;;;;;9.80;8.40;;;;;;;30.98;48.93;101243.48;106718;1259;24330;-49
2023/06/25 07:02:22;;;;;;;11.90;8.50;;;;;;;30.94;49.12;101242.09;106763;1267;25527;-49
2023/06/25 07:04:50;;;;;;;12.70;7.90;;;;;;;30.93;49.14;101245.48;106842;1258;25490;-49
2023/06/25 07:07:17;;;;;;;10.60;8.10;;;;;;;30.93;49.41;101245.62;106736;1259;25367;-51
2023/06/25 07:09:51;;;;;;;9.20;7.80;;;;;;;30.94;49.73;101247.13;106857;1267;24246;-48
2023/06/25 07:12:18;;;;;;;10.60;6.80;;;;;;;30.92;49.48;101246.08;106819;1255;24223;-49
2023/06/25 07:14:45;;;;;;;10.30;6.90;;;;;;;30.88;49.62;101247.56;106711;1258;25367;-49
2023/06/25 07:17:12;;;;;;;8.20;6.50;;;;;;;30.85;49.78;101249.45;106634;1258;25492;-49
2023/06/25 07:19:39;;;;;;;7.10;5.90;;;;;;;30.83;49.60;101245.72;106809;1264;25356;-52
2023/06/25 07:22:06;;;;;;;11.00;7.00;;;;;;;30.81;49.59;101246.11;107041;1267;22520;-49
2023/06/25 07:24:34;;;;;;;13.80;6.40;;;;;;;30.80;50.04;101243.66;107135;1267;25321;-49
2023/06/25 07:27:01;;;;;;;8.20;6.10;;;;;;;30.82;50.21;101245.23;106831;1260;24213;-51
2023/06/25 07:29:28;;;;;;;7.60;6.00;;;;;;;30.86;49.82;101239.19;106849;1268;23874;-49
2023/06/25 07:31:55;;;;;;;7.50;6.20;;;;;;;30.88;49.73;101237.70;107121;1258;25357;-48
2023/06/25 07:34:22;;;;;;;8.40;6.30;;;;;;;30.91;49.46;101240.42;107182;1264;25345;-52
2023/06/25 07:36:50;;;;;;;7.20;5.90;;;;;;;30.95;49.72;101241.30;107164;1252;25329;-51
2023/06/25 07:39:23;;;;;;;7.70;6.20;;;;;;;30.99;49.62;101241.94;106982;1264;25408;-51
2023/06/25 07:41:50;;;;;;;7.10;5.70;;;;;;;30.99;49.46;101240.48;107062;1257;24198;-50
2023/06/25 07:44:17;;;;;;;8.30;6.10;;;;;;;30.99;49.52;101244.96;106919;1256;22534;-50
2023/06/25 07:46:49;;;;;;;7.60;6.40;;;;;;;31.00;49.61;101242.95;106919;1263;25243;-49
2023/06/25 07:49:16;;;;;;;7.50;5.80;;;;;;;31.01;49.59;101244.78;107116;1262;25332;-51
2023/06/25 07:51:49;;;;;;;6.70;5.90;;;;;;;31.00;49.49;101242.91;107182;1264;24185;-49
2023/06/25 07:54:16;;;;;;;7.40;6.40;;;;;;;30.97;49.52;101238.79;106912;1253;22651;-48
2023/06/25 07:56:44;;;;;;;7.40;5.80;;;;;;;30.94;49.73;101240.71;107040;1251;22621;-48
2023/06/25 07:59:13;;;;;;;9.10;6.20;;;;;;;30.93;49.93;101239.93;107056;1264;23900;-49
2023/06/25 08:01:39;;;;;;;9.30;6.20;;;;;;;30.93;49.90;101236.68;107110;1256;25401;-49
2023/06/25 08:04:07;;;;;;;6.50;5.90;;;;;;;30.94;50.11;101233.52;107130;1257;25360;-49
2023/06/25 08:06:35;;;;;;;9.10;6.70;;;;;;;30.96;50.09;101233.84;106791;1267;24209;-49
2023/06/25 08:09:03;;;;;;;12.40;7.00;;;;;;;30.96;50.33;101235.83;106816;1264;25355;-51
2023/06/25 08:11:30;;;;;;;9.90;6.30;;;;;;;30.96;50.30;101231.67;106850;1264;23860;-49
2023/06/25 08:13:57;;;;;;;9.90;6.90;;;;;;;30.96;50.20;101233.68;107157;1264;25360;-49
2023/06/25 08:16:24;;;;;;;9.80;6.90;;;;;;;30.98;50.36;101233.13;106787;1268;25430;-49
2023/06/25 08:18:51;;;;;;;7.20;6.50;;;;;;;31.03;50.38;101234.39;107066;1260;25350;-49
2023/06/25 08:21:18;;;;;;;10.60;6.30;;;;;;;31.12;50.20;101236.63;107115;1256;25492;-49
2023/06/25 08:23:45;;;;;;;6.90;5.90;;;;;;;31.25;49.55;101234.83;107096;1252;28169;-49
2023/06/25 08:26:15;;;;;;;6.80;6.00;;;;;;;31.36;49.05;101230.44;107120;1256;25351;-48
2023/06/25 08:28:43;;;;;;;6.90;6.20;;;;;;;31.46;48.67;101230.57;107081;1268;23864;-49
2023/06/25 08:31:13;;;;;;;7.60;5.80;;;;;;;31.52;48.42;101221.84;107083;1256;25406;-49
2023/06/25 08:33:40;;;;;;;7.50;6.10;;;;;;;31.55;48.32;101221.13;107044;1257;25357;-49
2023/06/25 08:36:07;;;;;;;6.30;5.70;;;;;;;31.57;48.23;101224.52;106908;1267;24355;-50
2023/06/25 08:38:35;;;;;;;7.20;6.20;;;;;;;31.58;48.10;101220.35;107230;1262;23353;-52
2023/06/25 08:41:02;;;;;;;7.50;5.70;;;;;;;31.58;48.22;101216.73;107848;1256;22504;-47
2023/06/25 08:43:29;;;;;;;7.50;6.00;;;;;;;31.57;48.29;101208.38;107100;1251;26557;-49
2023/06/25 08:45:56;;;;;;;6.70;6.00;;;;;;;31.54;48.45;101209.38;107198;1260;22521;-49
2023/06/25 08:48:26;;;;;;;9.70;5.90;;;;;;;31.51;48.33;101209.08;106714;1269;25485;-49
2023/06/25 08:50:56;;;;;;;8.20;6.20;;;;;;;31.46;48.49;101208.82;106532;1251;25400;-49
2023/06/25 08:53:27;;;;;;;8.60;6.00;;;;;;;31.43;48.35;101209.52;106921;1255;22527;-49
2023/06/25 08:55:58;;;;;;;6.90;6.00;;;;;;;31.38;48.01;101208.42;107098;1257;25396;-49
2023/06/25 08:58:25;;;;;;;13.20;6.20;;;;;;;31.33;48.09;101204.71;107336;1257;25373;-47
2023/06/25 09:00:52;;;;;;;11.10;6.10;;;;;;;31.30;48.04;101202.77;107119;1256;25444;-49
2023/06/25 09:03:19;;;;;;;10.90;6.70;;;;;;;31.27;48.09;101198.95;107120;1256;25351;-47
2023/06/25 09:05:53;;;;;;;15.70;6.40;;;;;;;31.25;48.14;101198.98;107329;1256;23267;-48
2023/06/25 09:08:22;;;;;;;6.50;5.90;;;;;;;31.23;48.29;101205.05;107133;1252;25427;-50
2023/06/25 09:10:51;;;;;;;8.00;6.40;;;;;;;31.23;48.43;101199.19;107059;1256;22531;-48
2023/06/25 09:13:22;;;;;;;7.50;6.50;;;;;;;31.25;48.44;101195.78;106960;1264;24560;-47
2023/06/25 09:15:50;;;;;;;9.40;5.30;;;;;;;31.28;48.04;101196.16;107211;1251;25473;-47
2023/06/25 09:18:23;;;;;;;11.00;6.60;;;;;;;31.32;48.07;101192.64;107127;1254;25357;-48
2023/06/25 09:20:50;;;;;;;7.40;6.20;;;;;;;31.37;48.39;101192.33;106936;1258;25332;-48
2023/06/25 09:23:23;;;;;;;8.40;6.60;;;;;;;31.42;48.31;101191.31;107193;1255;22551;-49
2023/06/25 09:25:50;;;;;;;7.90;6.70;;;;;;;31.46;48.23;101187.86;107039;1255;25332;-48
2023/06/25 09:28:18;;;;;;;14.20;7.30;;;;;;;31.49;47.97;101189.64;107232;1264;25324;-47
2023/06/25 09:30:46;;;;;;;11.50;6.90;;;;;;;31.53;47.77;101186.54;107119;1253;25347;-51
2023/06/25 09:33:13;;;;;;;7.70;5.90;;;;;;;31.57;47.72;101189.80;107436;1263;25335;-46
2023/06/25 09:35:40;;;;;;;7.30;5.90;;;;;;;31.60;47.46;101191.81;107032;1256;25361;-47
2023/06/25 09:38:08;;;;;;;11.30;6.20;;;;;;;31.61;47.19;101191.13;107433;1256;23877;-48
2023/06/25 09:40:35;;;;;;;7.70;6.20;;;;;;;31.63;46.86;101190.42;107174;1258;25334;-46
2023/06/25 09:43:05;;;;;;;12.10;6.40;;;;;;;31.64;46.75;101187.94;107112;1266;22711;-46
2023/06/25 09:45:33;;;;;;;;;;;;;;;31.66;46.57;101190.73;107309;1253;25330;-46
2023/06/25 09:48:01;;;;;;;9.60;6.60;;;;;;;31.68;46.55;101189.36;107282;1256;25472;-46
2023/06/25 09:50:39;;;;;;;7.00;6.10;;;;;;;31.67;46.49;101183.29;106943;1256;25294;-46
2023/06/25 09:53:07;;;;;;;8.30;5.90;;;;;;;31.68;46.53;101184.10;107129;1255;22558;-48
2023/06/25 09:55:36;;;;;;;8.70;5.90;;;;;;;31.69;46.58;101185.48;107349;1262;22746;-48
2023/06/25 09:58:04;;;;;;;6.60;6.00;;;;;;;31.70;46.47;101180.14;107232;1262;25335;-46
2023/06/25 10:00:31;;;;;;;12.30;5.60;;;;;;;31.71;46.19;101179.17;107155;1251;23216;-49
2023/06/25 10:02:58;;;;;;;8.80;6.40;;;;;;;31.73;45.97;101172.86;107185;1256;24301;-47
2023/06/25 10:05:26;;;;;;;6.20;5.60;;;;;;;31.75;45.97;101170.14;107045;1265;25335;-50
2023/06/25 10:07:53;;;;;;;9.90;5.90;;;;;;;31.76;45.76;101170.30;107562;1253;22518;-49
2023/06/25 10:10:20;;;;;;;7.20;5.50;;;;;;;31.78;45.84;101168.16;107104;1256;24243;-47
2023/06/25 10:12:49;;;;;;;7.60;5.50;;;;;;;31.81;46.21;101167.89;107149;1256;25332;-46
2023/06/25 10:15:46;;;;;;;6.30;5.30;;;;;;;31.83;45.98;101162.11;107308;1256;22529;-49
2023/06/25 10:18:22;;;;;;;11.30;5.30;;;;;;;31.84;46.27;101156.36;106489;1276;22538;-46
2023/06/25 10:20:49;;;;;;;7.90;5.50;;;;;;;31.86;46.37;101152.09;106363;1274;25354;-49
2023/06/25 10:23:24;;;;;;;13.10;6.00;;;;;;;31.88;46.22;101150.73;106284;1261;25399;-47
2023/06/25 10:25:58;;;;;;;8.30;5.30;;;;;;;31.90;46.26;101141.61;106514;1264;24194;-46
2023/06/25 10:28:50;;;;;;;10.70;5.30;;;;;;;31.91;46.28;101136.14;106574;1262;25365;-48
2023/06/25 10:31:18;;;;;;;8.00;5.90;;;;;;;31.90;46.42;101132.07;106589;1260;25412;-48
2023/06/25 10:33:45;;;;;;;5.80;5.20;;;;;;;31.90;46.51;101132.73;106759;1271;25473;-47
2023/06/25 10:36:12;;;;;;;6.40;4.80;;;;;;;31.92;46.57;101132.05;106444;1272;24217;-48
2023/06/25 10:38:40;;;;;;;6.60;5.50;;;;;;;31.92;46.73;101122.92;106822;1262;25543;-48
2023/06/25 10:41:07;;;;;;;7.80;5.30;;;;;;;31.92;46.81;101125.36;106694;1260;25393;-48
2023/06/25 10:43:36;;;;;;;6.10;5.40;;;;;;;31.98;46.85;101123.23;106510;1270;23909;-48
2023/06/25 10:46:03;;;;;;;5.10;4.60;;;;;;;32.03;46.76;101120.65;106510;1265;22547;-49
2023/06/25 10:48:30;;;;;;;6.40;5.00;;;;;;;32.08;46.42;101123.50;106766;1269;25446;-47
2023/06/25 10:50:57;;;;;;;7.10;5.50;;;;;;;32.14;46.46;101121.40;106382;1272;25322;-48
2023/06/25 10:53:25;;;;;;;8.00;5.10;;;;;;;32.18;46.52;101120.36;106531;1262;22665;-49
2023/06/25 10:55:53;;;;;;;6.90;5.10;;;;;;;32.22;46.47;101117.80;106940;1263;24287;-48
2023/06/25 10:58:24;;;;;;;5.20;4.70;;;;;;;32.26;46.39;101114.13;106966;1252;25328;-47
2023/06/25 11:00:57;;;;;;;6.90;5.70;;;;;;;32.30;46.58;101110.84;107321;1257;25322;-46
2023/06/25 11:03:25;;;;;;;12.50;5.40;;;;;;;32.33;46.29;101109.44;107066;1255;25278;-48
2023/06/25 11:05:52;;;;;;;8.90;5.20;;;;;;;32.34;46.30;101110.95;107188;1259;22537;-50
2023/06/25 11:08:23;;;;;;;7.30;5.10;;;;;;;32.33;45.89;101114.62;107510;1253;23323;-49
2023/06/25 11:10:50;;;;;;;7.30;5.40;;;;;;;32.31;45.87;101114.27;107228;1257;24424;-50
2023/06/25 11:13:17;;;;;;;5.30;4.80;;;;;;;32.29;45.97;101110.86;107345;1258;25336;-48
2023/06/25 11:15:47;;;;;;;6.10;5.20;;;;;;;32.26;45.93;101105.27;107271;1256;25555;-49
2023/06/25 11:18:15;;;;;;;5.70;5.10;;;;;;;32.24;46.11;101104.94;107355;1253;24210;-45